Time;durP1;ratioP1;P1;durP2;ratioP2;P2;SDS_P1;SDS_P2;PMS_P1;PMS_P2;Temp;Humidity;BMP_temperature;BMP_pressure;BME280_temperature;BME280_humidity;BME280_pressure;Samples;Min_cycle;Max_cycle;Signal;HPM_P1;HPM_P2
2022/03/04 00:02:10;;;;;;;19.87;10.90;;;1.50;99.90;;;;;;5094072;28;20293;-76
2022/03/04 00:04:37;;;;;;;20.40;11.53;;;1.40;99.90;;;;;;5099335;28;20048;-77
2022/03/04 00:07:03;;;;;;;20.83;10.87;;;1.40;99.90;;;;;;5113751;28;20333;-76
2022/03/04 00:09:29;;;;;;;20.37;10.50;;;1.40;99.90;;;;;;5117135;27;20376;-76
2022/03/04 00:11:55;;;;;;;19.87;10.70;;;1.40;99.90;;;;;;5117954;28;20345;-77
2022/03/04 00:14:20;;;;;;;22.83;10.97;;;1.30;99.90;;;;;;5106464;27;20046;-77
2022/03/04 00:16:46;;;;;;;19.97;10.30;;;1.30;99.90;;;;;;5117303;27;20071;-77
2022/03/04 00:19:13;;;;;;;19.73;11.20;;;1.30;99.90;;;;;;5099759;28;20042;-77
2022/03/04 00:21:44;;;;;;;18.40;10.33;;;1.30;99.90;;;;;;5097567;28;20058;-76
2022/03/04 00:24:11;;;;;;;19.30;10.93;;;1.30;99.90;;;;;;5090613;28;20427;-76
2022/03/04 00:26:37;;;;;;;18.90;10.00;;;1.30;99.90;;;;;;5110805;28;20298;-76
2022/03/04 00:29:04;;;;;;;18.97;10.60;;;1.20;99.90;;;;;;5075856;27;20351;-76
2022/03/04 00:31:30;;;;;;;19.00;10.53;;;1.10;99.90;;;;;;5112495;27;20314;-76
2022/03/04 00:33:56;;;;;;;21.20;11.60;;;1.10;99.90;;;;;;5110950;27;20286;-76
2022/03/04 00:36:23;;;;;;;19.33;10.40;;;1.10;99.90;;;;;;5106269;28;20036;-76
2022/03/04 00:38:49;;;;;;;23.47;11.17;;;1.10;99.90;;;;;;5110671;28;20040;-76
2022/03/04 00:41:16;;;;;;;20.47;10.40;;;1.10;99.90;;;;;;5118961;28;20302;-76
2022/03/04 00:43:43;;;;;;;17.80;10.07;;;1.20;99.90;;;;;;5108484;27;20320;-76
2022/03/04 00:46:08;;;;;;;18.80;10.07;;;1.00;99.90;;;;;;5118872;27;20593;-76
2022/03/04 00:48:34;;;;;;;19.60;9.90;;;0.90;99.90;;;;;;5110568;28;20359;-76
2022/03/04 00:51:00;;;;;;;17.60;10.33;;;0.80;99.90;;;;;;5109767;27;20059;-76
2022/03/04 00:53:27;;;;;;;20.87;11.43;;;0.80;99.90;;;;;;5108591;28;20039;-76
2022/03/04 00:55:53;;;;;;;20.47;10.87;;;0.70;99.90;;;;;;5106402;28;20111;-77
2022/03/04 00:58:19;;;;;;;19.27;10.70;;;0.70;99.90;;;;;;5108909;27;20868;-77
2022/03/04 01:00:44;;;;;;;21.13;11.43;;;0.70;99.90;;;;;;5109259;27;20039;-76
2022/03/04 01:03:10;;;;;;;23.20;11.27;;;0.70;99.90;;;;;;5110339;27;20052;-76
2022/03/04 01:05:37;;;;;;;18.43;11.03;;;0.70;99.90;;;;;;5114529;27;20051;-76
2022/03/04 01:08:04;;;;;;;23.07;12.10;;;0.60;99.90;;;;;;5112284;28;20048;-77
2022/03/04 01:10:32;;;;;;;20.20;11.53;;;0.60;99.90;;;;;;5090696;28;20309;-75
2022/03/04 01:12:58;;;;;;;23.53;11.23;;;0.60;99.90;;;;;;5082305;28;20366;-76
2022/03/04 01:15:24;;;;;;;21.70;11.60;;;0.60;99.90;;;;;;5112276;28;20664;-78
2022/03/04 01:17:49;;;;;;;21.00;11.67;;;0.60;99.90;;;;;;5103225;28;20117;-75
2022/03/04 01:20:15;;;;;;;24.57;11.77;;;0.60;99.90;;;;;;5108616;27;20047;-76
2022/03/04 01:22:41;;;;;;;26.60;11.47;;;0.60;99.90;;;;;;5092307;28;20058;-77
2022/03/04 01:25:07;;;;;;;25.97;12.30;;;0.60;99.90;;;;;;5109409;28;20040;-75
2022/03/04 01:27:34;;;;;;;26.93;12.80;;;0.50;99.90;;;;;;5107854;28;20048;-75
2022/03/04 01:30:01;;;;;;;24.63;13.00;;;0.50;99.90;;;;;;5093222;27;20310;-77
2022/03/04 01:32:26;;;;;;;25.77;12.90;;;0.50;99.90;;;;;;5112597;27;20305;-77
2022/03/04 01:34:52;;;;;;;26.33;12.50;;;0.50;99.90;;;;;;5094521;28;20304;-77
2022/03/04 01:37:18;;;;;;;26.23;12.83;;;0.50;99.90;;;;;;5115100;27;20043;-76
2022/03/04 01:39:44;;;;;;;25.80;12.80;;;0.40;99.90;;;;;;5103088;28;20039;-76
2022/03/04 01:42:09;;;;;;;27.00;12.73;;;0.40;99.90;;;;;;5090053;28;20040;-77
2022/03/04 01:44:36;;;;;;;26.27;12.53;;;0.40;99.90;;;;;;5110537;28;20040;-76
2022/03/04 01:47:03;;;;;;;28.00;12.93;;;0.40;99.90;;;;;;5085982;28;20338;-76
2022/03/04 01:49:29;;;;;;;26.77;13.77;;;0.30;99.90;;;;;;5069069;28;20330;-76
2022/03/04 01:51:54;;;;;;;29.03;13.00;;;0.30;99.90;;;;;;5078645;28;20328;-76
2022/03/04 01:54:20;;;;;;;30.00;12.73;;;0.30;99.90;;;;;;5111204;27;20118;-76
2022/03/04 01:56:46;;;;;;;26.73;13.20;;;0.40;99.90;;;;;;5085277;28;20055;-76
2022/03/04 01:59:12;;;;;;;30.83;13.97;;;0.30;99.90;;;;;;5077095;28;20052;-77
2022/03/04 02:01:39;;;;;;;31.70;13.77;;;0.30;99.90;;;;;;5086869;28;20035;-76
2022/03/04 02:04:05;;;;;;;27.23;13.53;;;0.30;99.90;;;;;;5090015;27;20297;-76
2022/03/04 02:06:31;;;;;;;25.60;11.73;;;0.30;99.90;;;;;;5088194;28;20313;-76
2022/03/04 02:08:56;;;;;;;28.23;13.67;;;0.20;99.90;;;;;;5090104;28;20071;-76
2022/03/04 02:11:22;;;;;;;26.40;13.17;;;0.20;99.90;;;;;;5097852;27;20035;-76
2022/03/04 02:13:48;;;;;;;31.67;14.70;;;0.20;99.90;;;;;;5083264;28;20039;-76
2022/03/04 02:16:21;;;;;;;29.20;13.97;;;0.20;99.90;;;;;;5085464;28;20394;-76
2022/03/04 02:18:48;;;;;;;25.95;13.25;;;0.20;99.90;;;;;;5063122;28;20138;-76
2022/03/04 02:21:14;;;;;;;31.33;14.50;;;0.20;99.90;;;;;;5078512;28;20393;-76
2022/03/04 02:23:42;;;;;;;31.20;13.93;;;0.10;99.90;;;;;;5062182;28;20312;-76
2022/03/04 02:26:07;;;;;;;28.93;13.77;;;0.10;99.90;;;;;;5062817;28;20347;-76
2022/03/04 02:28:33;;;;;;;30.63;14.40;;;0.10;99.90;;;;;;5066320;28;20302;-76
2022/03/04 02:30:59;;;;;;;31.27;15.00;;;0.00;99.90;;;;;;5082526;28;20104;-76
2022/03/04 02:33:25;;;;;;;35.80;16.57;;;0.00;99.90;;;;;;5087984;27;20039;-76
2022/03/04 02:35:51;;;;;;;32.33;15.53;;;-0.10;99.90;;;;;;5068970;28;20071;-77
2022/03/04 02:38:17;;;;;;;29.23;14.53;;;0.00;99.90;;;;;;5087027;27;20089;-76
2022/03/04 02:40:44;;;;;;;29.33;13.27;;;-0.10;99.90;;;;;;5071092;28;20297;-76
2022/03/04 02:43:10;;;;;;;30.80;14.87;;;-0.10;99.90;;;;;;5085972;28;20122;-75
2022/03/04 02:45:35;;;;;;;29.77;13.90;;;-0.10;99.90;;;;;;5068689;28;20388;-76
2022/03/04 02:48:01;;;;;;;40.37;16.60;;;-0.10;99.90;;;;;;5088811;28;20067;-75
2022/03/04 02:50:27;;;;;;;35.17;14.80;;;-0.20;99.90;;;;;;5065402;28;20040;-76
2022/03/04 02:52:53;;;;;;;34.33;16.23;;;-0.10;99.90;;;;;;5078575;28;20050;-76
2022/03/04 02:55:18;;;;;;;37.27;16.07;;;-0.10;99.90;;;;;;5089345;28;20078;-77
2022/03/04 02:57:47;;;;;;;35.80;16.70;;;-0.10;99.90;;;;;;5080164;28;20043;-76
2022/03/04 03:00:14;;;;;;;39.27;15.77;;;-0.10;99.90;;;;;;5077788;28;20055;-76
2022/03/04 03:02:40;;;;;;;32.40;15.07;;;-0.10;99.90;;;;;;5078137;28;20305;-76
2022/03/04 03:05:07;;;;;;;33.10;16.73;;;-0.20;99.90;;;;;;5055336;28;20366;-76
2022/03/04 03:07:33;;;;;;;37.27;16.37;;;-0.20;99.90;;;;;;5076703;28;20403;-77
2022/03/04 03:09:59;;;;;;;43.37;17.97;;;-0.20;99.90;;;;;;5082019;28;20294;-75
2022/03/04 03:12:24;;;;;;;38.93;17.17;;;-0.20;99.90;;;;;;5067323;28;20301;-76
2022/03/04 03:14:51;;;;;;;39.13;17.47;;;-0.20;99.90;;;;;;5067121;28;20043;-76
2022/03/04 03:17:17;;;;;;;39.87;16.37;;;-0.20;99.90;;;;;;5056092;28;20064;-76
2022/03/04 03:19:43;;;;;;;44.13;17.77;;;-0.20;99.90;;;;;;5094719;28;20815;-76
2022/03/04 03:22:09;;;;;;;38.23;15.50;;;-0.20;99.90;;;;;;5092458;28;20678;-76
2022/03/04 03:24:34;;;;;;;35.17;15.03;;;-0.30;99.90;;;;;;5085072;27;20075;-76
2022/03/04 03:27:00;;;;;;;34.43;16.83;;;-0.20;99.90;;;;;;5086758;27;20481;-76
2022/03/04 03:29:26;;;;;;;35.70;16.80;;;-0.30;99.90;;;;;;5082953;28;20054;-76
2022/03/04 03:31:53;;;;;;;39.47;17.00;;;-0.30;99.90;;;;;;5088639;28;20063;-76
2022/03/04 03:34:19;;;;;;;35.07;15.93;;;-0.30;99.90;;;;;;5087410;27;20054;-76
2022/03/04 03:36:44;;;;;;;38.27;16.33;;;-0.30;99.90;;;;;;5070760;28;20301;-76
2022/03/04 03:39:10;;;;;;;42.63;18.90;;;-0.30;99.90;;;;;;5089315;27;20579;-75
2022/03/04 03:41:36;;;;;;;41.57;18.53;;;-0.30;99.90;;;;;;5085050;28;20088;-76
2022/03/04 03:44:02;;;;;;;40.93;18.77;;;-0.30;99.90;;;;;;5090107;27;20048;-76
2022/03/04 03:46:28;;;;;;;43.37;19.80;;;-0.40;99.90;;;;;;5069352;28;20047;-75
2022/03/04 03:48:55;;;;;;;40.73;18.60;;;-0.40;99.90;;;;;;5072083;28;20293;-76
2022/03/04 03:51:22;;;;;;;38.83;17.63;;;-0.40;99.90;;;;;;5069689;28;20047;-75
2022/03/04 03:53:47;;;;;;;36.83;18.37;;;-0.40;99.90;;;;;;5099898;28;20318;-76
2022/03/04 03:56:13;;;;;;;46.77;21.47;;;-0.40;99.90;;;;;;5075133;28;20434;-76
2022/03/04 03:58:39;;;;;;;39.47;19.17;;;-0.40;99.90;;;;;;5062827;28;20426;-76
2022/03/04 04:01:05;;;;;;;40.20;19.00;;;-0.40;99.90;;;;;;5075541;28;20122;-76
2022/03/04 04:03:30;;;;;;;36.70;18.37;;;-0.40;99.90;;;;;;5067341;28;20044;-75
2022/03/04 04:05:57;;;;;;;43.03;19.27;;;-0.40;99.90;;;;;;5062873;28;20407;-76
2022/03/04 04:08:23;;;;;;;41.80;18.27;;;-0.40;99.90;;;;;;5086666;28;20055;-76
2022/03/04 04:10:49;;;;;;;43.93;18.87;;;-0.40;99.90;;;;;;5087727;28;20727;-76
2022/03/04 04:13:15;;;;;;;48.47;19.87;;;-0.50;99.90;;;;;;5088186;27;20051;-76
2022/03/04 04:15:41;;;;;;;46.33;19.70;;;-0.50;99.90;;;;;;5096757;28;20414;-75
2022/03/04 04:18:07;;;;;;;43.83;19.97;;;-0.50;99.90;;;;;;5091116;27;20074;-76
2022/03/04 04:20:32;;;;;;;40.50;19.20;;;-0.50;99.90;;;;;;5066781;28;20048;-75
2022/03/04 04:22:59;;;;;;;46.30;22.00;;;-0.50;99.90;;;;;;5090203;28;20418;-76
2022/03/04 04:25:25;;;;;;;40.23;21.60;;;-0.50;99.90;;;;;;5083713;28;20051;-76
2022/03/04 04:27:51;;;;;;;49.40;22.63;;;-0.50;99.90;;;;;;5070378;28;20707;-75
2022/03/04 04:30:16;;;;;;;42.90;18.87;;;-0.50;99.90;;;;;;5091036;28;20057;-75
2022/03/04 04:32:42;;;;;;;45.77;20.57;;;-0.50;99.90;;;;;;5071805;28;20101;-76
2022/03/04 04:35:09;;;;;;;41.90;20.83;;;-0.50;99.90;;;;;;5080822;28;20046;-75
2022/03/04 04:37:34;;;;;;;51.33;23.03;;;-0.50;99.90;;;;;;5080004;28;20050;-75
2022/03/04 04:40:04;;;;;;;51.67;22.83;;;-0.50;99.90;;;;;;5066301;27;20298;-75
2022/03/04 04:42:30;;;;;;;45.37;22.07;;;-0.40;99.90;;;;;;5066162;28;20104;-76
2022/03/04 04:44:56;;;;;;;48.40;22.63;;;-0.40;99.90;;;;;;5053012;28;20801;-75
2022/03/04 04:47:21;;;;;;;47.47;22.93;;;-0.40;99.90;;;;;;5066492;28;20040;-76
2022/03/04 04:49:48;;;;;;;47.03;22.43;;;-0.40;99.90;;;;;;5087348;28;20039;-75
2022/03/04 04:52:14;;;;;;;46.87;23.10;;;-0.40;99.90;;;;;;5085842;28;20057;-76
2022/03/04 04:54:40;;;;;;;51.50;22.43;;;-0.40;99.90;;;;;;5064835;28;20298;-76
2022/03/04 04:57:07;;;;;;;46.30;22.53;;;-0.40;99.90;;;;;;5085725;28;20305;-75
2022/03/04 04:59:33;;;;;;;44.83;21.60;;;-0.40;99.90;;;;;;5054096;28;20664;-75
2022/03/04 05:01:59;;;;;;;45.03;22.77;;;-0.40;99.90;;;;;;5081277;28;20307;-76
2022/03/04 05:04:25;;;;;;;54.60;24.57;;;-0.40;99.90;;;;;;5078338;28;20563;-76
2022/03/04 05:06:51;;;;;;;47.10;23.30;;;-0.40;99.90;;;;;;5084269;28;20066;-75
2022/03/04 05:09:16;;;;;;;46.00;23.70;;;-0.40;99.90;;;;;;5065689;28;20046;-75
2022/03/04 05:11:43;;;;;;;48.27;22.70;;;-0.40;99.90;;;;;;5074785;28;20512;-76
2022/03/04 05:14:10;;;;;;;48.60;23.40;;;-0.40;99.90;;;;;;5085146;27;20035;-75
2022/03/04 05:16:36;;;;;;;53.93;24.67;;;-0.40;99.90;;;;;;5078875;28;20813;-75
2022/03/04 05:19:02;;;;;;;47.83;23.00;;;-0.40;99.90;;;;;;5082223;27;20308;-76
2022/03/04 05:21:28;;;;;;;42.47;19.23;;;-0.40;99.90;;;;;;5083535;28;20032;-76
2022/03/04 05:23:59;;;;;;;44.80;22.03;;;-0.40;99.90;;;;;;5075463;28;20851;-75
2022/03/04 05:26:26;;;;;;;50.37;23.57;;;-0.50;99.90;;;;;;5080037;28;20363;-75
2022/03/04 05:28:52;;;;;;;50.93;24.20;;;-0.40;99.90;;;;;;5087866;28;20329;-75
2022/03/04 05:31:19;;;;;;;48.90;23.93;;;-0.40;99.90;;;;;;5088295;28;20816;-75
2022/03/04 05:33:45;;;;;;;51.47;23.63;;;-0.30;99.90;;;;;;5088860;28;20510;-76
2022/03/04 05:36:11;;;;;;;50.80;23.77;;;-0.40;99.90;;;;;;5065728;28;20305;-76
2022/03/04 05:38:37;;;;;;;49.73;23.30;;;-0.30;99.90;;;;;;5084348;28;20075;-77
2022/03/04 05:41:03;;;;;;;49.03;25.27;;;-0.30;99.90;;;;;;5059504;28;20059;-76
2022/03/04 05:43:29;;;;;;;51.70;23.30;;;-0.30;99.90;;;;;;5076487;28;20046;-76
2022/03/04 05:45:54;;;;;;;48.03;21.77;;;-0.30;99.90;;;;;;5079656;28;20036;-76
2022/03/04 05:48:21;;;;;;;55.70;25.70;;;-0.30;99.90;;;;;;5083768;27;20304;-76
2022/03/04 05:50:47;;;;;;;52.70;25.67;;;-0.30;99.90;;;;;;5092125;28;20056;-76
2022/03/04 05:53:14;;;;;;;57.57;26.60;;;-0.30;99.90;;;;;;5071160;27;20367;-75
2022/03/04 05:55:39;;;;;;;53.93;24.43;;;-0.30;99.90;;;;;;5068693;28;20063;-76
2022/03/04 05:58:05;;;;;;;48.60;21.57;;;-0.30;99.90;;;;;;5059397;27;20330;-76
2022/03/04 06:00:31;;;;;;;58.03;26.10;;;-0.30;99.90;;;;;;5094134;28;20084;-76
2022/03/04 06:02:57;;;;;;;62.43;27.27;;;-0.30;99.90;;;;;;5086033;28;20040;-75
2022/03/04 06:05:25;;;;;;;55.80;24.57;;;-0.20;99.90;;;;;;5078419;28;20545;-75
2022/03/04 06:07:51;;;;;;;56.97;26.77;;;-0.20;99.90;;;;;;5094545;28;20306;-75
2022/03/04 06:10:17;;;;;;;54.90;25.23;;;-0.20;99.90;;;;;;5088352;28;20312;-76
2022/03/04 06:12:43;;;;;;;58.80;25.67;;;-0.20;99.90;;;;;;5093798;27;20044;-75
2022/03/04 06:15:09;;;;;;;56.90;26.83;;;-0.20;99.90;;;;;;5095685;28;20043;-75
2022/03/04 06:17:35;;;;;;;48.77;22.27;;;-0.20;99.90;;;;;;5099677;28;20056;-75
2022/03/04 06:20:00;;;;;;;48.97;25.13;;;-0.20;99.90;;;;;;5101365;27;20298;-75
2022/03/04 06:22:27;;;;;;;50.77;23.97;;;-0.20;99.90;;;;;;5097222;27;20555;-75
2022/03/04 06:24:53;;;;;;;56.40;26.63;;;-0.20;99.90;;;;;;5103391;28;20115;-75
2022/03/04 06:27:19;;;;;;;53.80;26.43;;;-0.20;99.90;;;;;;5105389;27;20786;-75
2022/03/04 06:29:44;;;;;;;54.17;26.23;;;-0.20;99.90;;;;;;5095612;28;20096;-75
2022/03/04 06:32:11;;;;;;;62.17;27.43;;;-0.20;99.90;;;;;;5097918;28;20063;-75
2022/03/04 06:34:37;;;;;;;48.10;23.20;;;-0.20;99.90;;;;;;5086737;28;20044;-76
2022/03/04 06:37:03;;;;;;;55.53;24.87;;;-0.20;99.90;;;;;;5092408;28;20342;-75
2022/03/04 06:39:30;;;;;;;55.80;24.33;;;-0.20;99.90;;;;;;5104667;27;20043;-75
2022/03/04 06:41:56;;;;;;;54.47;24.77;;;-0.10;99.90;;;;;;5086044;28;20298;-75
2022/03/04 06:44:22;;;;;;;53.83;24.80;;;-0.10;99.90;;;;;;5106606;28;20299;-76
2022/03/04 06:46:47;;;;;;;55.03;25.57;;;-0.10;99.90;;;;;;5089080;28;20041;-75
2022/03/04 06:49:13;;;;;;;52.10;25.77;;;-0.10;99.90;;;;;;5082661;28;20032;-76
2022/03/04 06:51:39;;;;;;;49.47;23.20;;;-0.10;99.90;;;;;;5098892;28;20503;-75
2022/03/04 06:54:06;;;;;;;52.33;23.07;;;-0.10;99.90;;;;;;5086898;27;20592;-76
2022/03/04 06:56:33;;;;;;;49.23;24.87;;;-0.10;99.90;;;;;;5084354;28;20304;-76
2022/03/04 06:58:58;;;;;;;54.93;24.93;;;-0.10;99.90;;;;;;5085085;28;20301;-76
2022/03/04 07:01:24;;;;;;;50.83;25.07;;;-0.20;99.90;;;;;;5120701;27;20372;-76
2022/03/04 07:03:50;;;;;;;50.63;26.17;;;-0.10;99.90;;;;;;5098292;28;20122;-76
2022/03/04 07:06:16;;;;;;;54.63;25.80;;;-0.20;99.90;;;;;;5095939;28;20048;-76
2022/03/04 07:08:42;;;;;;;50.90;24.10;;;-0.10;99.90;;;;;;5101196;28;20056;-75
2022/03/04 07:11:08;;;;;;;43.63;20.93;;;-0.20;99.90;;;;;;5098967;28;21048;-75
2022/03/04 07:13:35;;;;;;;55.90;26.83;;;-0.10;99.90;;;;;;5083092;28;20301;-75
2022/03/04 07:16:02;;;;;;;60.10;24.60;;;-0.10;99.90;;;;;;5086805;28;20358;-75
2022/03/04 07:18:29;;;;;;;52.20;24.87;;;-0.10;99.90;;;;;;5096903;28;20688;-75
2022/03/04 07:20:56;;;;;;;56.70;26.67;;;-0.10;99.90;;;;;;5098602;28;20297;-75
2022/03/04 07:23:21;;;;;;;54.67;25.17;;;-0.10;99.90;;;;;;5099753;28;20294;-75
2022/03/04 07:25:47;;;;;;;54.17;26.00;;;0.00;99.90;;;;;;5099351;28;20303;-75
2022/03/04 07:28:14;;;;;;;53.07;26.43;;;0.00;99.90;;;;;;5081029;28;20051;-75
2022/03/04 07:30:42;;;;;;;54.13;23.93;;;0.00;99.90;;;;;;5076450;28;20304;-75
2022/03/04 07:33:08;;;;;;;56.83;28.60;;;0.10;99.90;;;;;;5081954;28;20099;-75
2022/03/04 07:35:35;;;;;;;50.50;26.10;;;0.10;99.90;;;;;;5093252;28;20298;-75
2022/03/04 07:38:02;;;;;;;55.40;25.87;;;0.30;99.90;;;;;;5078487;28;21178;-75
2022/03/04 07:40:28;;;;;;;49.50;25.10;;;0.20;99.90;;;;;;5095601;28;20297;-75
2022/03/04 07:42:53;;;;;;;46.57;23.87;;;0.30;99.90;;;;;;5086064;28;20306;-76
2022/03/04 07:45:19;;;;;;;50.87;26.43;;;0.30;99.90;;;;;;5089259;28;20134;-75
2022/03/04 07:47:46;;;;;;;47.80;24.27;;;0.40;99.90;;;;;;5078842;28;20724;-75
2022/03/04 07:50:14;;;;;;;45.70;23.97;;;0.40;99.90;;;;;;5074158;28;20458;-75
2022/03/04 07:52:40;;;;;;;52.97;25.90;;;0.50;99.90;;;;;;5067462;28;20396;-77
2022/03/04 07:55:09;;;;;;;46.50;21.53;;;0.50;99.90;;;;;;5083470;28;20298;-76
2022/03/04 07:57:35;;;;;;;48.27;24.73;;;0.50;99.90;;;;;;5097623;28;20320;-76
2022/03/04 08:00:00;;;;;;;50.20;26.70;;;0.40;99.90;;;;;;5089014;28;20403;-76
2022/03/04 08:02:26;;;;;;;50.40;26.23;;;0.50;99.90;;;;;;5094319;28;20659;-76
2022/03/04 08:04:53;;;;;;;53.03;26.27;;;0.50;99.90;;;;;;5088119;28;20126;-76
2022/03/04 08:07:19;;;;;;;49.77;26.70;;;0.60;99.90;;;;;;5081167;28;20327;-77
2022/03/04 08:09:48;;;;;;;42.27;23.53;;;0.70;99.90;;;;;;5083799;28;20305;-76
2022/03/04 08:12:14;;;;;;;55.47;26.63;;;0.70;99.90;;;;;;5100186;27;20430;-76
2022/03/04 08:14:40;;;;;;;51.37;26.27;;;0.70;99.90;;;;;;5075298;28;20082;-75
2022/03/04 08:17:05;;;;;;;44.63;21.90;;;0.80;99.90;;;;;;5098397;28;20067;-75
2022/03/04 08:19:33;;;;;;;45.17;22.50;;;0.80;99.90;;;;;;5080437;28;20048;-75
2022/03/04 08:22:00;;;;;;;45.40;23.43;;;0.80;99.90;;;;;;5076963;28;20447;-77
2022/03/04 08:24:25;;;;;;;44.30;24.37;;;0.80;99.90;;;;;;5096723;27;20630;-75
2022/03/04 08:26:52;;;;;;;49.77;25.63;;;0.70;99.90;;;;;;5094189;28;20306;-77
2022/03/04 08:29:18;;;;;;;49.00;25.50;;;0.70;99.90;;;;;;5092318;27;21318;-76
2022/03/04 08:31:44;;;;;;;45.47;25.37;;;0.70;99.90;;;;;;5076408;28;20373;-75
2022/03/04 08:34:09;;;;;;;51.77;26.10;;;0.80;99.90;;;;;;5094566;27;20043;-76
2022/03/04 08:36:36;;;;;;;44.03;23.40;;;1.00;99.90;;;;;;5075998;28;20562;-76
2022/03/04 08:39:05;;;;;;;42.57;23.43;;;1.00;99.90;;;;;;5096543;27;20508;-75
2022/03/04 08:41:32;;;;;;;44.70;23.10;;;1.10;99.90;;;;;;5102267;27;20305;-75
2022/03/04 08:43:58;;;;;;;42.43;23.90;;;1.10;99.90;;;;;;5074232;28;20297;-75
2022/03/04 08:46:24;;;;;;;41.80;23.13;;;1.30;99.90;;;;;;5120053;27;20316;-76
2022/03/04 08:48:50;;;;;;;43.57;24.47;;;1.30;99.90;;;;;;5103757;27;20070;-76
2022/03/04 08:51:16;;;;;;;44.47;24.23;;;1.50;99.90;;;;;;5077960;28;20048;-75
2022/03/04 08:53:42;;;;;;;40.83;23.67;;;1.60;99.90;;;;;;5052996;28;20047;-75
2022/03/04 08:56:09;;;;;;;42.07;23.00;;;1.70;99.90;;;;;;5099336;27;20694;-75
2022/03/04 08:58:35;;;;;;;37.63;23.27;;;1.80;99.90;;;;;;5079865;28;20310;-75
2022/03/04 09:01:03;;;;;;;39.87;21.57;;;1.80;99.90;;;;;;5074552;28;20827;-75
2022/03/04 09:03:29;;;;;;;41.17;22.17;;;1.70;99.90;;;;;;5091921;27;20310;-76
2022/03/04 09:05:54;;;;;;;41.30;22.97;;;1.70;99.90;;;;;;5077113;28;20642;-76
2022/03/04 09:08:20;;;;;;;44.33;22.13;;;1.70;99.90;;;;;;5108580;27;20048;-75
2022/03/04 09:10:46;;;;;;;38.23;21.50;;;1.80;99.90;;;;;;5061959;28;20069;-77
2022/03/04 09:13:13;;;;;;;37.57;21.67;;;1.90;99.90;;;;;;5090250;27;20050;-76
2022/03/04 09:15:39;;;;;;;36.60;18.53;;;1.90;99.90;;;;;;5082428;28;20515;-76
2022/03/04 09:18:05;;;;;;;39.37;21.13;;;2.00;99.90;;;;;;5093008;27;20383;-76
2022/03/04 09:20:32;;;;;;;41.20;23.23;;;2.10;99.90;;;;;;5096374;27;20048;-78
2022/03/04 09:22:58;;;;;;;42.73;21.97;;;2.10;99.90;;;;;;5081603;28;20293;-76
2022/03/04 09:25:26;;;;;;;38.27;21.83;;;2.30;99.90;;;;;;5094463;27;20422;-77
2022/03/04 09:27:53;;;;;;;40.53;21.80;;;2.30;99.90;;;;;;5101055;27;20397;-77
2022/03/04 09:30:20;;;;;;;34.27;21.57;;;2.30;99.90;;;;;;5079808;28;20305;-76
2022/03/04 09:32:46;;;;;;;33.73;20.63;;;2.40;99.90;;;;;;5092422;28;20359;-79
2022/03/04 09:35:12;;;;;;;33.80;20.43;;;2.60;99.90;;;;;;5084527;28;20297;-77
2022/03/04 09:37:38;;;;;;;31.20;18.90;;;2.80;99.90;;;;;;5077964;28;20051;-76
2022/03/04 09:40:07;;;;;;;33.33;19.30;;;2.80;99.90;;;;;;5098532;27;20673;-76
2022/03/04 09:42:33;;;;;;;31.80;20.10;;;2.80;99.90;;;;;;5091779;27;20322;-77
2022/03/04 09:45:00;;;;;;;31.87;18.33;;;2.90;99.90;;;;;;5097770;27;20817;-75
2022/03/04 09:47:28;;;;;;;29.57;17.67;;;3.10;99.90;;;;;;5097812;27;20312;-77
2022/03/04 09:49:54;;;;;;;32.30;19.17;;;3.20;99.90;;;;;;5078761;28;20305;-76
2022/03/04 09:52:20;;;;;;;33.57;20.57;;;3.30;99.90;;;;;;5081023;27;20667;-76
2022/03/04 09:54:47;;;;;;;32.57;20.20;;;3.70;99.90;;;;;;5075915;28;20377;-75
2022/03/04 09:57:13;;;;;;;30.87;18.80;;;4.40;99.90;;;;;;5094916;28;20337;-76
2022/03/04 09:59:39;;;;;;;30.80;18.63;;;4.60;99.90;;;;;;5098089;27;20375;-76
2022/03/04 10:02:05;;;;;;;29.63;19.27;;;4.50;99.90;;;;;;5085948;27;20040;-75
2022/03/04 10:04:33;;;;;;;32.83;19.17;;;4.50;99.90;;;;;;5095341;27;20039;-76
2022/03/04 10:07:08;;;;;;;28.67;18.93;;;4.70;99.90;;;;;;5104789;27;20503;-78
2022/03/04 10:09:41;;;;;;;27.77;18.27;;;4.90;99.90;;;;;;5077382;28;20305;-76
2022/03/04 10:12:07;;;;;;;30.73;19.30;;;5.20;99.90;;;;;;5082715;28;20310;-76
2022/03/04 10:14:33;;;;;;;28.43;18.50;;;5.30;99.90;;;;;;5086696;28;20305;-78
2022/03/04 10:16:59;;;;;;;29.00;18.80;;;5.80;99.90;;;;;;5067051;27;20529;-76
2022/03/04 10:19:26;;;;;;;26.80;18.43;;;6.40;99.90;;;;;;5077734;27;20123;-78
2022/03/04 10:21:55;;;;;;;23.60;16.60;;;7.90;99.90;;;;;;5081110;28;20039;-76
2022/03/04 10:24:23;;;;;;;24.60;17.20;;;9.70;99.90;;;;;;5091132;27;20155;-77
2022/03/04 10:26:58;;;;;;;21.83;15.90;;;10.70;99.90;;;;;;5060078;28;20134;-79
2022/03/04 10:29:25;;;;;;;21.90;15.57;;;12.10;99.90;;;;;;5084156;27;20039;-79
2022/03/04 10:32:14;;;;;;;20.90;15.17;;;12.90;99.90;;;;;;5073396;28;20132;-78
2022/03/04 10:34:49;;;;;;;21.13;15.57;;;14.10;99.80;;;;;;5063046;28;20044;-78
2022/03/04 10:37:19;;;;;;;22.67;15.87;;;15.00;95.50;;;;;;5072706;27;20039;-78
2022/03/04 10:39:59;;;;;;;18.57;15.10;;;15.90;96.10;;;;;;5064748;28;20052;-78
2022/03/04 10:42:47;;;;;;;18.80;15.37;;;16.50;90.20;;;;;;5090264;28;20039;-78
2022/03/04 10:45:15;;;;;;;20.87;15.07;;;16.80;81.70;;;;;;5071801;28;20044;-78
2022/03/04 10:47:44;;;;;;;18.73;14.93;;;16.70;75.90;;;;;;5072224;28;20096;-78
2022/03/04 10:50:10;;;;;;;19.87;15.50;;;16.90;75.80;;;;;;5079414;28;20044;-78
2022/03/04 10:52:50;;;;;;;21.07;16.97;;;17.10;68.20;;;;;;5064406;28;20035;-79
2022/03/04 10:55:36;;;;;;;18.73;16.07;;;17.10;70.60;;;;;;5063856;28;20712;-79
2022/03/04 10:58:05;;;;;;;19.97;16.07;;;17.50;66.90;;;;;;5057170;28;20048;-79
2022/03/04 11:00:33;;;;;;;19.03;14.67;;;17.60;64.30;;;;;;5087314;28;20399;-78
2022/03/04 11:02:59;;;;;;;19.43;15.30;;;17.70;60.30;;;;;;5062250;28;20111;-78
2022/03/04 11:05:25;;;;;;;19.33;15.47;;;17.70;57.90;;;;;;5083865;28;20051;-77
2022/03/04 11:07:52;;;;;;;18.13;14.87;;;17.70;57.80;;;;;;5065527;28;20047;-79
2022/03/04 11:10:19;;;;;;;18.10;14.47;;;17.60;57.20;;;;;;5081521;28;20051;-78
2022/03/04 11:12:49;;;;;;;20.90;14.80;;;17.90;55.30;;;;;;5086693;28;20459;-80
2022/03/04 11:15:17;;;;;;;18.13;15.67;;;18.00;54.90;;;;;;5083449;28;20050;-79
2022/03/04 11:17:45;;;;;;;17.50;14.83;;;18.10;54.70;;;;;;5095785;28;20085;-76
2022/03/04 11:20:11;;;;;;;16.17;14.47;;;17.80;51.60;;;;;;5086155;28;20065;-76
2022/03/04 11:22:39;;;;;;;19.73;15.93;;;17.80;52.20;;;;;;5062140;28;20196;-75
2022/03/04 11:25:12;;;;;;;14.93;13.07;;;17.80;51.80;;;;;;5074517;28;20039;-76
2022/03/04 11:27:41;;;;;;;17.17;14.83;;;17.70;49.70;;;;;;5077804;28;20052;-76
2022/03/04 11:30:25;;;;;;;16.37;14.07;;;17.40;50.80;;;;;;5046689;28;20051;-77
2022/03/04 11:32:59;;;;;;;18.20;15.03;;;17.40;51.30;;;;;;5060117;28;20051;-75
2022/03/04 11:35:48;;;;;;;16.70;14.82;;;17.70;52.10;;;;;;5073048;28;20072;-76
2022/03/04 11:38:14;;;;;;;16.50;13.63;;;18.00;49.60;;;;;;5079142;28;20035;-77
2022/03/04 11:40:49;;;;;;;17.93;14.77;;;18.10;48.00;;;;;;5070068;28;20087;-76
2022/03/04 11:43:16;;;;;;;17.90;14.50;;;17.90;49.70;;;;;;5081077;27;20675;-77
2022/03/04 11:45:42;;;;;;;17.13;14.63;;;18.00;48.70;;;;;;5062438;28;20058;-75
2022/03/04 11:48:10;;;;;;;18.03;15.10;;;17.50;50.40;;;;;;5079399;28;20048;-76
2022/03/04 11:50:47;;;;;;;17.73;14.53;;;17.60;49.70;;;;;;5077974;28;20510;-76
2022/03/04 11:53:15;;;;;;;18.20;15.27;;;17.50;49.40;;;;;;5076722;28;20097;-76
2022/03/04 11:56:12;;;;;;;18.53;15.17;;;17.30;47.70;;;;;;5064732;28;20060;-76
2022/03/04 11:59:07;;;;;;;18.03;14.80;;;16.60;49.10;;;;;;5075035;28;20043;-75
2022/03/04 12:01:35;;;;;;;17.92;14.75;;;15.70;50.20;;;;;;5078426;28;20043;-75
2022/03/04 12:04:06;;;;;;;17.20;14.17;;;15.80;51.50;;;;;;5086201;28;20499;-75
2022/03/04 12:06:32;;;;;;;18.90;14.27;;;15.80;50.00;;;;;;5066233;28;20514;-75
2022/03/04 12:09:25;;;;;;;17.43;14.10;;;15.60;50.70;;;;;;5084129;28;20044;-75
2022/03/04 12:12:18;;;;;;;15.97;13.47;;;15.40;50.40;;;;;;5054557;28;20435;-75
2022/03/04 12:14:48;;;;;;;19.93;14.77;;;15.00;51.70;;;;;;5066187;28;20096;-75
2022/03/04 12:17:16;;;;;;;16.53;13.97;;;14.70;52.00;;;;;;5077929;28;20094;-77
2022/03/04 12:19:43;;;;;;;18.77;12.77;;;14.40;53.70;;;;;;5088853;28;20040;-76
2022/03/04 12:22:12;;;;;;;17.50;14.23;;;14.40;52.70;;;;;;5064648;28;20055;-75
2022/03/04 12:24:38;;;;;;;18.53;13.23;;;14.10;54.50;;;;;;5081169;28;20499;-75
2022/03/04 12:27:04;;;;;;;19.30;15.33;;;14.30;55.40;;;;;;5067272;28;20140;-75
2022/03/04 12:29:52;;;;;;;21.53;13.53;;;14.60;55.50;;;;;;5076021;28;20487;-74
2022/03/04 12:32:18;;;;;;;19.37;13.37;;;14.70;54.70;;;;;;5074821;28;20131;-76